createdAt,value
2018-03-22T00:01:01.631Z,27.98
2018-03-22T00:02:04.287Z,26.27
2018-03-22T00:03:06.813Z,30.10
2018-03-22T00:04:09.338Z,24.77
2018-03-22T00:05:11.895Z,25.30
2018-03-22T00:06:14.430Z,30.33
2018-03-22T00:07:16.966Z,25.58
2018-03-22T00:08:19.538Z,26.95
2018-03-22T00:09:22.072Z,22.95
2018-03-22T00:10:25.366Z,23.80
2018-03-22T00:11:27.911Z,27.23
2018-03-22T00:12:30.444Z,30.65
2018-03-22T00:13:33.024Z,35.72
2018-03-22T00:14:35.546Z,28.42
2018-03-22T00:15:38.073Z,26.00
2018-03-22T00:16:41.386Z,19.50
2018-03-22T00:17:43.937Z,27.95
2018-03-22T00:18:47.267Z,27.15
2018-03-22T00:19:49.815Z,23.92
2018-03-22T00:20:52.376Z,23.65
2018-03-22T00:21:54.942Z,27.15
2018-03-22T00:22:57.511Z,23.70
2018-03-22T00:24:00.047Z,32.35
2018-03-22T00:25:02.590Z,28.12
2018-03-22T00:26:05.121Z,20.92
2018-03-22T00:27:07.695Z,22.45
2018-03-22T00:28:10.256Z,22.48
2018-03-22T00:29:12.802Z,24.58
2018-03-22T00:30:15.335Z,26.83
2018-03-22T00:31:29.894Z,25.75
2018-03-22T00:32:32.459Z,22.13
2018-03-22T00:33:34.990Z,22.50
2018-03-22T00:34:37.550Z,26.80
2018-03-22T00:35:40.078Z,28.17
2018-03-22T00:36:43.373Z,26.65
2018-03-22T00:37:45.929Z,25.25
2018-03-22T00:38:49.206Z,24.27
2018-03-22T00:39:52.532Z,27.30
2018-03-22T00:40:55.086Z,25.27
2018-03-22T00:41:57.612Z,28.12
2018-03-22T00:43:00.146Z,26.52
2018-03-22T00:44:02.670Z,28.38
2018-03-22T00:45:05.225Z,23.80
2018-03-22T00:46:08.522Z,27.90
2018-03-22T00:47:11.955Z,25.85
2018-03-22T00:48:14.496Z,22.48
2018-03-22T00:49:17.031Z,26.00
2018-03-22T00:50:20.353Z,24.85
2018-03-22T00:51:22.880Z,24.90
2018-03-22T00:52:26.178Z,22.75
2018-03-22T00:53:28.705Z,25.37
2018-03-22T00:54:31.233Z,30.92
2018-03-22T00:55:33.805Z,25.67
2018-03-22T00:56:36.317Z,26.08
2018-03-22T00:57:39.614Z,25.45
2018-03-22T00:58:42.894Z,24.85
2018-03-22T00:59:46.181Z,28.25
2018-03-22T01:00:48.757Z,29.48
2018-03-22T01:01:51.321Z,23.40
2018-03-22T01:02:53.859Z,25.00
2018-03-22T01:03:56.388Z,27.67
2018-03-22T01:04:58.908Z,28.60
2018-03-22T01:06:02.232Z,25.48
2018-03-22T01:07:04.764Z,31.83
2018-03-22T01:08:08.116Z,28.90
2018-03-22T01:09:10.633Z,25.37
2018-03-22T01:10:13.169Z,32.03
2018-03-22T01:11:16.463Z,23.15
2018-03-22T01:12:19.768Z,27.92
2018-03-22T01:13:22.330Z,26.00
2018-03-22T01:14:24.856Z,29.83
2018-03-22T01:15:27.382Z,25.95
2018-03-22T01:16:29.903Z,24.12
2018-03-22T01:17:33.237Z,27.30
2018-03-22T01:18:35.800Z,27.33
2018-03-22T01:19:38.325Z,21.05
2018-03-22T01:20:40.865Z,31.67
2018-03-22T01:21:43.406Z,30.67
2018-03-22T01:22:45.971Z,25.65
2018-03-22T01:23:48.513Z,31.10
2018-03-22T01:24:51.040Z,30.95
2018-03-22T01:25:53.574Z,27.23
2018-03-22T01:26:56.135Z,28.70
2018-03-22T01:27:58.664Z,27.17
2018-03-22T01:29:01.953Z,29.80
2018-03-22T01:30:04.486Z,26.98
2018-03-22T01:31:07.028Z,23.80
2018-03-22T01:32:09.590Z,29.75
2018-03-22T01:33:12.133Z,25.80
2018-03-22T01:34:14.653Z,27.37
2018-03-22T01:35:17.214Z,34.03
2018-03-22T01:36:19.741Z,34.63
2018-03-22T01:37:22.256Z,27.98
2018-03-22T01:38:24.781Z,26.30
2018-03-22T01:39:27.299Z,25.95
2018-03-22T01:40:30.620Z,28.83
2018-03-22T01:41:33.135Z,34.90
2018-03-22T01:42:35.661Z,32.25
2018-03-22T01:43:38.219Z,35.28
2018-03-22T01:44:40.744Z,25.40
2018-03-22T01:45:44.035Z,27.55
2018-03-22T01:46:47.325Z,27.85
2018-03-22T01:47:50.618Z,27.67
2018-03-22T01:48:53.178Z,38.35
2018-03-22T01:49:55.704Z,28.45
2018-03-22T01:50:58.328Z,28.35
2018-03-22T01:52:00.850Z,27.92
2018-03-22T01:53:13.358Z,29.40
2018-03-22T01:54:16.681Z,29.90
2018-03-22T01:55:19.234Z,32.75
2018-03-22T01:56:21.785Z,29.73
2018-03-22T01:57:25.070Z,30.90
2018-03-22T01:58:28.380Z,30.92
2018-03-22T01:59:30.937Z,29.87
2018-03-22T02:00:33.455Z,27.13
2018-03-22T02:01:35.981Z,37.50
2018-03-22T02:02:38.496Z,29.92
2018-03-22T02:03:41.067Z,28.45
2018-03-22T02:04:43.590Z,33.95
2018-03-22T02:05:46.117Z,31.85
2018-03-22T02:06:49.414Z,34.85
2018-03-22T02:07:52.044Z,36.80
2018-03-22T02:08:54.601Z,27.20
2018-03-22T02:09:57.227Z,32.92
2018-03-22T02:10:59.757Z,29.73
2018-03-22T02:12:02.272Z,31.48
2018-03-22T02:13:04.789Z,29.17
2018-03-22T02:14:08.134Z,27.62
2018-03-22T02:15:10.657Z,28.45
2018-03-22T02:16:13.195Z,32.20
2018-03-22T02:17:15.729Z,37.05
2018-03-22T02:18:18.254Z,31.35
2018-03-22T02:19:20.816Z,34.70
2018-03-22T02:20:24.095Z,42.00
2018-03-22T02:21:27.395Z,35.88
2018-03-22T02:22:29.917Z,30.77
2018-03-22T02:23:32.450Z,38.30
2018-03-22T02:24:35.019Z,29.87
2018-03-22T02:25:37.578Z,36.85
2018-03-22T02:26:40.103Z,33.47
2018-03-22T02:27:43.401Z,33.10
2018-03-22T02:28:46.699Z,31.85
2018-03-22T02:29:49.229Z,27.95
2018-03-22T02:30:51.785Z,38.70
2018-03-22T02:31:54.394Z,41.58
2018-03-22T02:32:56.958Z,32.58
2018-03-22T02:33:59.513Z,31.50
2018-03-22T02:35:02.803Z,33.35
2018-03-22T02:36:06.094Z,29.25
2018-03-22T02:37:08.627Z,29.90
2018-03-22T02:38:11.208Z,36.72
2018-03-22T02:39:14.626Z,34.30
2018-03-22T02:40:17.189Z,32.65
2018-03-22T02:41:19.710Z,35.28
2018-03-22T02:42:22.237Z,32.05
2018-03-22T02:43:24.801Z,41.75
2018-03-22T02:44:27.330Z,29.87
2018-03-22T02:45:30.628Z,34.85
2018-03-22T02:46:33.152Z,28.38
2018-03-22T02:47:35.693Z,29.25
2018-03-22T02:48:38.249Z,33.15
2018-03-22T02:49:40.775Z,34.67
2018-03-22T02:50:44.061Z,35.50
2018-03-22T02:51:47.370Z,36.20
2018-03-22T02:52:49.898Z,41.65
2018-03-22T02:53:52.462Z,33.65
2018-03-22T02:54:54.988Z,35.50
2018-03-22T02:55:57.508Z,34.92
2018-03-22T02:57:00.804Z,32.83
2018-03-22T02:58:03.335Z,33.70
2018-03-22T02:59:05.910Z,41.13
2018-03-22T03:00:09.226Z,31.80
2018-03-22T03:01:11.759Z,36.80
2018-03-22T03:02:14.295Z,39.05
2018-03-22T03:03:17.581Z,35.38
2018-03-22T03:04:20.133Z,31.60
2018-03-22T03:05:22.674Z,42.95
2018-03-22T03:06:25.197Z,24.17
2018-03-22T03:07:27.748Z,35.35
2018-03-22T03:08:30.327Z,37.67
2018-03-22T03:09:32.901Z,37.40
2018-03-22T03:10:35.522Z,36.10
2018-03-22T03:11:38.046Z,35.92
2018-03-22T03:12:40.580Z,33.70
2018-03-22T03:13:43.864Z,38.30
2018-03-22T03:14:46.433Z,34.85
2018-03-22T03:15:48.961Z,34.55
2018-03-22T03:16:51.480Z,34.70
2018-03-22T03:17:54.105Z,40.67
2018-03-22T03:18:56.629Z,34.03
2018-03-22T03:19:59.967Z,33.92
2018-03-22T03:21:02.497Z,35.35
2018-03-22T03:22:05.780Z,34.58
2018-03-22T03:23:09.105Z,34.58
2018-03-22T03:24:11.625Z,30.55
2018-03-22T03:25:14.921Z,34.60
2018-03-22T03:26:18.206Z,36.22
2018-03-22T03:27:20.733Z,34.47
2018-03-22T03:28:23.292Z,39.03
2018-03-22T03:29:25.808Z,34.25
2018-03-22T03:30:28.371Z,34.53
2018-03-22T03:31:30.904Z,38.65
2018-03-22T03:32:33.440Z,32.65
2018-03-22T03:33:35.975Z,36.38
2018-03-22T03:34:38.539Z,35.63
2018-03-22T03:35:41.058Z,32.30
2018-03-22T03:36:43.583Z,31.77
2018-03-22T03:37:46.122Z,32.95
2018-03-22T03:38:49.413Z,35.17
2018-03-22T03:39:52.736Z,40.75
2018-03-22T03:40:55.262Z,36.20
2018-03-22T03:41:58.590Z,43.75
2018-03-22T03:43:01.110Z,39.15
2018-03-22T03:44:04.409Z,36.88
2018-03-22T03:45:06.970Z,35.63
2018-03-22T03:46:09.497Z,36.85
2018-03-22T03:47:12.038Z,32.25
2018-03-22T03:48:14.641Z,33.58
2018-03-22T03:49:17.955Z,38.58
2018-03-22T03:50:20.626Z,33.80
2018-03-22T03:51:23.147Z,37.40
2018-03-22T03:52:25.677Z,32.17
2018-03-22T03:53:28.208Z,45.75
2018-03-22T03:54:31.501Z,37.08
2018-03-22T03:55:34.064Z,33.67
2018-03-22T03:56:37.349Z,37.90
2018-03-22T03:57:40.637Z,45.33
2018-03-22T03:58:43.149Z,36.85
2018-03-22T03:59:45.705Z,37.55
2018-03-22T04:00:48.237Z,34.35
2018-03-22T04:01:50.761Z,39.35
2018-03-22T04:02:53.289Z,39.28
2018-03-22T04:03:55.820Z,38.40
2018-03-22T04:04:59.140Z,35.92
2018-03-22T04:06:01.662Z,36.83
2018-03-22T04:07:04.188Z,43.22
2018-03-22T04:08:06.705Z,36.55
2018-03-22T04:09:09.997Z,35.78
2018-03-22T04:10:12.574Z,35.55
2018-03-22T04:11:15.859Z,36.20
2018-03-22T04:12:18.407Z,34.85
2018-03-22T04:13:21.739Z,35.72
2018-03-22T04:14:24.263Z,34.42
2018-03-22T04:15:26.796Z,37.65
2018-03-22T04:16:29.356Z,32.88
2018-03-22T04:17:31.982Z,33.22
2018-03-22T04:18:34.508Z,31.52
2018-03-22T04:19:37.062Z,34.90
2018-03-22T04:20:39.576Z,37.65
2018-03-22T04:21:42.139Z,38.55
2018-03-22T04:22:44.665Z,35.70
2018-03-22T04:23:47.210Z,39.25
2018-03-22T04:24:50.493Z,38.97
2018-03-22T04:25:53.020Z,37.50
2018-03-22T04:26:55.576Z,37.67
2018-03-22T04:27:58.865Z,36.10
2018-03-22T04:29:01.388Z,38.13
2018-03-22T04:30:04.024Z,34.45
2018-03-22T04:31:06.585Z,39.65
2018-03-22T04:32:09.112Z,35.95
2018-03-22T04:33:11.639Z,37.90
2018-03-22T04:34:14.181Z,43.20
2018-03-22T04:35:16.749Z,40.60
2018-03-22T04:36:19.269Z,36.33
2018-03-22T04:37:22.557Z,38.35
2018-03-22T04:38:25.086Z,39.92
2018-03-22T04:39:27.621Z,43.63
2018-03-22T04:40:30.179Z,35.53
2018-03-22T04:41:32.715Z,38.33
2018-03-22T04:42:35.241Z,41.47
2018-03-22T04:43:37.817Z,42.00
2018-03-22T04:44:40.345Z,37.00
2018-03-22T04:45:42.881Z,44.17
2018-03-22T04:46:45.396Z,36.30
2018-03-22T04:47:47.921Z,39.28
2018-03-22T04:48:51.257Z,40.63
2018-03-22T04:49:53.786Z,46.95
2018-03-22T04:50:57.073Z,37.70
2018-03-22T04:51:59.641Z,38.25
2018-03-22T04:53:02.168Z,41.70
2018-03-22T04:54:04.849Z,44.45
2018-03-22T04:55:07.374Z,40.40
2018-03-22T04:56:09.905Z,46.80
2018-03-22T04:57:13.234Z,39.42
2018-03-22T04:58:15.750Z,51.25
2018-03-22T04:59:19.085Z,48.05
2018-03-22T05:00:21.585Z,42.28
2018-03-22T05:01:24.892Z,39.67
2018-03-22T05:02:28.235Z,43.17
2018-03-22T05:03:30.766Z,43.58
2018-03-22T05:04:33.298Z,48.05
2018-03-22T05:05:36.585Z,53.47
2018-03-22T05:06:39.918Z,50.50
2018-03-22T05:07:42.440Z,40.88
2018-03-22T05:08:45.761Z,43.63
2018-03-22T05:09:48.281Z,46.47
2018-03-22T05:10:51.578Z,44.17
2018-03-22T05:11:54.105Z,48.33
2018-03-22T05:12:56.629Z,46.50
2018-03-22T05:13:59.225Z,46.03
2018-03-22T05:15:01.742Z,51.22
2018-03-22T05:16:04.273Z,52.22
2018-03-22T05:17:06.791Z,48.22
2018-03-22T05:18:09.313Z,49.85
2018-03-22T05:19:11.886Z,58.30
2018-03-22T05:20:14.415Z,45.67
2018-03-22T05:21:16.943Z,49.42
2018-03-22T05:22:19.469Z,46.45
2018-03-22T05:23:22.004Z,48.87
2018-03-22T05:24:24.553Z,46.65
2018-03-22T05:25:27.077Z,57.33
2018-03-22T05:26:29.604Z,46.47
2018-03-22T05:27:32.136Z,50.38
2018-03-22T05:28:34.668Z,74.75
2018-03-22T05:29:38.022Z,56.88
2018-03-22T05:30:40.555Z,69.87
2018-03-22T05:31:43.081Z,74.62
2018-03-22T05:32:45.599Z,51.17
2018-03-22T05:33:48.149Z,80.25
2018-03-22T05:34:50.709Z,65.00
2018-03-22T05:35:54.001Z,52.88
2018-03-22T05:36:56.535Z,46.65
2018-03-22T05:37:59.259Z,61.97
2018-03-22T05:39:01.781Z,65.35
2018-03-22T05:40:04.322Z,68.78
2018-03-22T05:41:06.846Z,69.85
2018-03-22T05:42:09.370Z,60.15
2018-03-22T05:43:11.920Z,53.28
2018-03-22T05:44:14.450Z,45.85
2018-03-22T05:45:16.970Z,52.58
2018-03-22T05:46:19.490Z,50.30
2018-03-22T05:47:22.034Z,51.67
2018-03-22T05:48:24.594Z,54.03
2018-03-22T05:49:27.957Z,49.20
2018-03-22T05:50:30.481Z,48.50
2018-03-22T05:51:33.032Z,51.25
2018-03-22T05:52:35.549Z,44.40
2018-03-22T05:53:38.116Z,59.20
2018-03-22T05:54:40.631Z,45.05
2018-03-22T05:55:43.158Z,52.75
2018-03-22T05:56:46.461Z,54.95
2018-03-22T05:57:48.987Z,54.58
2018-03-22T05:58:51.547Z,54.10
2018-03-22T05:59:54.081Z,50.00
2018-03-22T06:00:56.601Z,45.30
2018-03-22T06:01:59.129Z,52.78
2018-03-22T06:03:01.666Z,39.28
2018-03-22T06:04:04.291Z,58.17
2018-03-22T06:05:06.812Z,56.50
2018-03-22T06:06:09.342Z,51.78
2018-03-22T06:07:12.635Z,47.88
2018-03-22T06:08:15.172Z,55.15
2018-03-22T06:09:17.740Z,52.53
2018-03-22T06:10:20.287Z,46.22
2018-03-22T06:11:22.810Z,56.42
2018-03-22T06:12:25.329Z,50.97
2018-03-22T06:13:27.849Z,53.83
2018-03-22T06:14:30.537Z,54.90
2018-03-22T06:15:33.078Z,51.70
2018-03-22T06:16:35.600Z,50.00
2018-03-22T06:17:38.158Z,47.97
2018-03-22T06:18:40.680Z,55.30
2018-03-22T06:19:43.202Z,46.08
2018-03-22T06:20:45.753Z,56.50
2018-03-22T06:21:48.287Z,49.58
2018-03-22T06:22:50.846Z,57.45
2018-03-22T06:23:53.374Z,49.33
2018-03-22T06:24:56.673Z,52.75
2018-03-22T06:25:59.993Z,53.30
2018-03-22T06:27:02.522Z,48.67
2018-03-22T06:28:06.011Z,55.40
2018-03-22T06:29:09.294Z,54.50
2018-03-22T06:30:12.636Z,45.70
2018-03-22T06:31:15.158Z,46.33
2018-03-22T06:32:18.449Z,56.33
2018-03-22T06:33:21.002Z,54.65
2018-03-22T06:34:24.291Z,58.20
2018-03-22T06:35:27.576Z,53.78
2018-03-22T06:36:30.872Z,53.58
2018-03-22T06:37:33.406Z,49.60
2018-03-22T06:38:36.739Z,51.10
2018-03-22T06:39:39.263Z,54.97
2018-03-22T06:40:42.557Z,63.22
2018-03-22T06:41:45.840Z,56.20
2018-03-22T06:42:49.165Z,45.40
2018-03-22T06:43:51.693Z,49.13
2018-03-22T06:44:55.010Z,56.20
2018-03-22T06:45:57.551Z,57.70
2018-03-22T06:47:00.105Z,51.17
2018-03-22T06:48:03.433Z,54.13
2018-03-22T06:49:05.956Z,59.22
2018-03-22T06:50:09.253Z,52.58
2018-03-22T06:51:11.783Z,49.75
2018-03-22T06:52:14.434Z,56.58
2018-03-22T06:53:17.002Z,66.57
2018-03-22T06:54:19.522Z,62.17
2018-03-22T06:55:22.045Z,61.70
2018-03-22T06:56:24.618Z,59.15
2018-03-22T06:57:27.149Z,53.53
2018-03-22T06:58:29.709Z,57.75
2018-03-22T06:59:32.323Z,54.42
2018-03-22T07:00:34.857Z,55.30
2018-03-22T07:01:37.381Z,55.38
2018-03-22T07:02:39.942Z,49.95
2018-03-22T07:03:42.466Z,58.87
2018-03-22T07:04:45.007Z,50.83
2018-03-22T07:05:47.537Z,57.30
2018-03-22T07:06:50.862Z,56.97
2018-03-22T07:07:53.379Z,58.40
2018-03-22T07:08:56.712Z,63.40
2018-03-22T07:09:59.240Z,62.10
2018-03-22T07:11:02.531Z,65.70
2018-03-22T07:12:05.044Z,57.95
2018-03-22T07:13:07.605Z,57.30
2018-03-22T07:14:10.174Z,57.83
2018-03-22T07:15:12.693Z,63.47
2018-03-22T07:16:16.045Z,57.08
2018-03-22T07:17:18.565Z,56.55
2018-03-22T07:18:21.123Z,60.00
2018-03-22T07:19:23.654Z,56.35
2018-03-22T07:20:26.196Z,59.67
2018-03-22T07:21:28.722Z,63.97
2018-03-22T07:22:31.254Z,63.47
2018-03-22T07:23:33.817Z,64.18
2018-03-22T07:24:36.346Z,58.80
2018-03-22T07:25:38.870Z,60.30
2018-03-22T07:26:42.191Z,60.88
2018-03-22T07:27:44.713Z,55.60
2018-03-22T07:28:47.997Z,72.97
2018-03-22T07:29:51.292Z,55.03
2018-03-22T07:30:53.852Z,62.08
2018-03-22T07:31:57.142Z,52.47
2018-03-22T07:32:59.704Z,49.78
2018-03-22T07:34:02.972Z,58.47
2018-03-22T07:35:06.311Z,59.53
2018-03-22T07:36:08.850Z,60.50
2018-03-22T07:37:11.377Z,56.03
2018-03-22T07:38:13.893Z,56.28
2018-03-22T07:39:16.412Z,59.53
2018-03-22T07:40:18.974Z,57.95
2018-03-22T07:41:21.520Z,61.50
2018-03-22T07:42:24.057Z,57.65
2018-03-22T07:43:32.205Z,60.33
2018-03-22T07:44:45.474Z,60.63
2018-03-22T07:45:47.997Z,60.63
2018-03-22T07:46:50.557Z,56.45
2018-03-22T07:47:53.082Z,54.45
2018-03-22T07:48:55.601Z,59.25
2018-03-22T07:49:58.896Z,62.62
2018-03-22T07:51:01.465Z,52.92
2018-03-22T07:52:04.750Z,59.05
2018-03-22T07:53:08.044Z,56.40
2018-03-22T07:54:10.715Z,57.78
2018-03-22T07:55:13.248Z,63.30
2018-03-22T07:56:15.804Z,60.35
2018-03-22T07:57:18.333Z,59.67
2018-03-22T07:58:20.857Z,60.55
2018-03-22T07:59:24.159Z,64.10
2018-03-22T08:00:26.677Z,52.60
2018-03-22T08:01:29.240Z,68.22
2018-03-22T08:02:32.545Z,54.10
2018-03-22T08:03:35.065Z,57.20
2018-03-22T08:04:37.685Z,56.13
2018-03-22T08:05:40.984Z,55.60
2018-03-22T08:06:44.307Z,56.72
2018-03-22T08:07:46.832Z,59.22
2018-03-22T08:08:50.121Z,58.38
2018-03-22T08:09:53.414Z,60.05
2018-03-22T08:10:55.941Z,61.67
2018-03-22T08:11:58.503Z,54.50
2018-03-22T08:13:01.029Z,57.28
2018-03-22T08:14:03.544Z,63.80
2018-03-22T08:15:06.081Z,66.60
2018-03-22T08:16:08.763Z,61.05
2018-03-22T08:17:11.302Z,62.75
2018-03-22T08:18:13.861Z,62.05
2018-03-22T08:19:16.393Z,55.00
2018-03-22T08:20:19.722Z,54.15
2018-03-22T08:21:22.254Z,63.17
2018-03-22T08:22:25.552Z,66.45
2018-03-22T08:23:28.117Z,58.70
2018-03-22T08:24:30.635Z,54.85
2018-03-22T08:25:34.080Z,72.03
2018-03-22T08:26:36.605Z,59.25
2018-03-22T08:27:39.899Z,62.78
2018-03-22T08:28:43.221Z,57.75
2018-03-22T08:29:45.772Z,57.10
2018-03-22T08:30:48.361Z,69.45
2018-03-22T08:31:50.882Z,66.37
2018-03-22T08:32:54.161Z,61.53
2018-03-22T08:33:57.450Z,56.17
2018-03-22T08:35:00.799Z,63.83
2018-03-22T08:36:03.341Z,63.95
2018-03-22T08:37:05.860Z,60.28
2018-03-22T08:38:09.147Z,66.10
2018-03-22T08:39:12.482Z,74.87
2018-03-22T08:40:14.992Z,74.40
2018-03-22T08:41:18.330Z,65.10
2018-03-22T08:42:20.848Z,71.25
2018-03-22T08:43:24.137Z,69.68
2018-03-22T08:44:27.425Z,72.62
2018-03-22T08:45:30.718Z,64.45
2018-03-22T08:46:33.273Z,65.07
2018-03-22T08:47:36.566Z,62.28
2018-03-22T08:48:39.137Z,66.65
2018-03-22T08:49:41.706Z,68.05
2018-03-22T08:50:44.225Z,63.45
2018-03-22T08:51:46.742Z,68.70
2018-03-22T08:52:49.260Z,49.65
2018-03-22T08:53:51.818Z,61.60
2018-03-22T08:54:54.367Z,62.90
2018-03-22T08:55:56.898Z,67.40
2018-03-22T08:56:59.425Z,66.07
2018-03-22T08:58:01.941Z,59.03
2018-03-22T08:59:04.501Z,62.30
2018-03-22T09:00:07.018Z,67.15
2018-03-22T09:01:09.533Z,60.10
2018-03-22T09:02:12.065Z,60.40
2018-03-22T09:03:14.592Z,65.37
2018-03-22T09:04:17.156Z,58.47
2018-03-22T09:05:20.457Z,66.32
2018-03-22T09:06:23.024Z,58.00
2018-03-22T09:07:25.540Z,55.92
2018-03-22T09:08:28.110Z,59.88
2018-03-22T09:09:30.630Z,61.20
2018-03-22T09:10:33.150Z,69.47
2018-03-22T09:11:35.688Z,70.43
2018-03-22T09:12:38.973Z,58.35
2018-03-22T09:13:42.310Z,60.12
2018-03-22T09:14:45.603Z,62.30
2018-03-22T09:15:48.239Z,58.35
2018-03-22T09:16:50.805Z,57.05
2018-03-22T09:17:53.360Z,55.08
2018-03-22T09:18:55.880Z,59.50
2018-03-22T09:19:58.398Z,62.35
2018-03-22T09:21:00.915Z,56.72
2018-03-22T09:22:03.482Z,65.93
2018-03-22T09:23:06.005Z,52.70
2018-03-22T09:24:08.672Z,61.30
2018-03-22T09:25:11.191Z,58.70
2018-03-22T09:26:14.522Z,66.28
2018-03-22T09:27:17.058Z,56.58
2018-03-22T09:28:20.345Z,59.40
2018-03-22T09:29:23.634Z,62.00
2018-03-22T09:30:26.194Z,57.17
2018-03-22T09:31:29.472Z,51.08
2018-03-22T09:32:32.801Z,54.20
2018-03-22T09:33:35.333Z,60.10
2018-03-22T09:34:38.613Z,53.05
2018-03-22T09:35:41.893Z,56.42
2018-03-22T09:36:45.321Z,53.22
2018-03-22T09:37:47.877Z,56.45
2018-03-22T09:38:50.399Z,61.42
2018-03-22T09:39:53.697Z,55.38
2018-03-22T09:40:56.980Z,56.42
2018-03-22T09:42:00.265Z,58.60
2018-03-22T09:43:03.590Z,59.17
2018-03-22T09:44:06.125Z,55.97
2018-03-22T09:45:08.636Z,63.03
2018-03-22T09:46:12.053Z,61.25
2018-03-22T09:47:14.572Z,60.45
2018-03-22T09:48:17.152Z,56.88
2018-03-22T09:49:19.692Z,65.20
2018-03-22T09:50:22.213Z,61.13
2018-03-22T09:51:24.749Z,65.87
2018-03-22T09:52:27.265Z,63.97
2018-03-22T09:53:30.595Z,63.42
2018-03-22T09:54:33.112Z,59.20
2018-03-22T09:55:36.410Z,56.28
2018-03-22T09:56:38.936Z,56.13
2018-03-22T09:57:41.465Z,58.85
2018-03-22T09:58:44.018Z,57.03
2018-03-22T09:59:46.549Z,52.85
2018-03-22T10:00:49.086Z,57.60
2018-03-22T10:01:51.634Z,54.08
2018-03-22T10:02:54.174Z,53.47
2018-03-22T10:03:56.742Z,57.22
2018-03-22T10:04:59.261Z,53.63
2018-03-22T10:06:01.799Z,54.15
2018-03-22T10:07:04.330Z,59.72
2018-03-22T10:08:07.640Z,55.40
2018-03-22T10:09:10.210Z,58.58
2018-03-22T10:10:12.742Z,59.58
2018-03-22T10:11:16.130Z,57.25
2018-03-22T10:12:19.475Z,57.47
2018-03-22T10:13:21.997Z,62.42
2018-03-22T10:14:24.557Z,60.70
2018-03-22T10:15:27.089Z,66.87
2018-03-22T10:16:29.618Z,70.05
2018-03-22T10:17:32.147Z,57.03
2018-03-22T10:18:35.437Z,55.17
2018-03-22T10:19:38.008Z,58.97
2018-03-22T10:20:40.528Z,65.60
2018-03-22T10:21:43.093Z,59.28
2018-03-22T10:22:45.621Z,73.18
2018-03-22T10:23:48.146Z,58.78
2018-03-22T10:24:51.441Z,61.08
2018-03-22T10:25:54.726Z,59.40
2018-03-22T10:26:58.062Z,60.10
2018-03-22T10:28:00.581Z,68.70
2018-03-22T10:29:03.873Z,59.35
2018-03-22T10:30:06.396Z,57.85
2018-03-22T10:31:08.925Z,55.70
2018-03-22T10:32:11.490Z,64.22
2018-03-22T10:33:14.054Z,57.38
2018-03-22T10:34:16.568Z,55.55
2018-03-22T10:35:19.100Z,54.78
2018-03-22T10:36:21.642Z,52.03
2018-03-22T10:37:24.179Z,47.83
2018-03-22T10:38:27.500Z,54.70
2018-03-22T10:39:30.018Z,51.22
2018-03-22T10:40:32.555Z,47.30
2018-03-22T10:41:35.081Z,45.30
2018-03-22T10:42:38.372Z,46.15
2018-03-22T10:43:40.933Z,46.03
2018-03-22T10:44:43.468Z,51.35
2018-03-22T10:45:46.012Z,48.03
2018-03-22T10:46:48.545Z,48.90
2018-03-22T10:47:51.056Z,45.88
2018-03-22T10:48:53.614Z,47.28
2018-03-22T10:49:56.194Z,43.58
2018-03-22T10:50:58.713Z,49.72
2018-03-22T10:52:01.243Z,49.30
2018-03-22T10:53:04.544Z,48.35
2018-03-22T10:54:07.081Z,46.67
2018-03-22T10:55:09.635Z,45.58
2018-03-22T10:56:12.158Z,44.08
2018-03-22T10:57:14.674Z,44.75
2018-03-22T10:58:17.195Z,40.33
2018-03-22T10:59:19.740Z,49.33
2018-03-22T11:00:27.845Z,37.70
2018-03-22T11:01:36.012Z,40.47
2018-03-22T11:02:44.128Z,46.65
2018-03-22T11:03:52.316Z,41.72
2018-03-22T11:04:55.634Z,45.33
2018-03-22T11:05:58.153Z,44.17
2018-03-22T11:07:00.678Z,43.30
2018-03-22T11:08:03.205Z,38.70
2018-03-22T11:09:06.537Z,42.97
2018-03-22T11:10:09.055Z,41.22
2018-03-22T11:11:12.338Z,37.15
2018-03-22T11:12:15.633Z,41.97
2018-03-22T11:13:18.152Z,37.20
2018-03-22T11:14:20.713Z,41.70
2018-03-22T11:15:23.261Z,45.92
2018-03-22T11:16:25.794Z,36.25
2018-03-22T11:17:28.325Z,36.85
2018-03-22T11:18:30.846Z,32.20
2018-03-22T11:19:33.409Z,41.08
2018-03-22T11:20:35.928Z,36.92
2018-03-22T11:21:38.449Z,41.03
2018-03-22T11:22:41.013Z,38.85
2018-03-22T11:23:43.529Z,38.50
2018-03-22T11:24:46.063Z,42.72
2018-03-22T11:25:48.604Z,52.67
2018-03-22T11:26:51.136Z,45.72
2018-03-22T11:27:54.461Z,45.35
2018-03-22T11:28:56.988Z,38.70
2018-03-22T11:30:00.302Z,41.55
2018-03-22T11:31:02.874Z,44.80
2018-03-22T11:32:05.389Z,38.45
2018-03-22T11:33:07.939Z,38.15
2018-03-22T11:34:10.505Z,43.67
2018-03-22T11:35:13.027Z,47.62
2018-03-22T11:36:15.565Z,47.38
2018-03-22T11:37:18.128Z,41.17
2018-03-22T11:38:20.660Z,48.70
2018-03-22T11:39:23.225Z,43.67
2018-03-22T11:40:25.757Z,40.58
2018-03-22T11:41:28.284Z,41.30
2018-03-22T11:42:30.801Z,49.47
2018-03-22T11:43:33.346Z,41.33
2018-03-22T11:44:36.662Z,44.53
2018-03-22T11:45:39.190Z,45.63
2018-03-22T11:46:42.477Z,44.30
2018-03-22T11:47:45.793Z,43.22
2018-03-22T11:48:48.325Z,42.72
2018-03-22T11:49:51.622Z,51.50
2018-03-22T11:50:54.205Z,44.20
2018-03-22T11:51:57.468Z,45.60
2018-03-22T11:53:00.040Z,44.25
2018-03-22T11:54:02.570Z,44.60
2018-03-22T11:55:05.096Z,46.33
2018-03-22T11:56:07.620Z,42.22
2018-03-22T11:57:10.905Z,44.20
2018-03-22T11:58:14.242Z,40.38
2018-03-22T11:59:16.774Z,41.55
2018-03-22T12:00:19.479Z,38.95
2018-03-22T12:01:22.066Z,42.20
2018-03-22T12:02:24.567Z,44.78
2018-03-22T12:03:27.906Z,35.50
2018-03-22T12:04:30.425Z,40.90
2018-03-22T12:05:32.949Z,38.42
2018-03-22T12:06:35.482Z,38.33
2018-03-22T12:07:38.030Z,37.00
2018-03-22T12:08:40.624Z,40.12
2018-03-22T12:09:43.132Z,46.35
2018-03-22T12:10:46.425Z,36.63
2018-03-22T12:11:49.709Z,31.30
2018-03-22T12:12:53.033Z,34.45
2018-03-22T12:13:55.564Z,31.73
2018-03-22T12:14:58.848Z,32.58
2018-03-22T12:16:02.139Z,31.20
2018-03-22T12:17:04.689Z,30.58
2018-03-22T12:18:07.978Z,30.70
2018-03-22T12:19:11.270Z,28.38
2018-03-22T12:20:13.786Z,29.80
2018-03-22T12:21:16.367Z,41.03
2018-03-22T12:22:18.895Z,33.45
2018-03-22T12:23:21.430Z,28.55
2018-03-22T12:24:24.759Z,31.05
2018-03-22T12:25:27.257Z,27.23
2018-03-22T12:26:29.825Z,31.48
2018-03-22T12:27:32.363Z,28.48
2018-03-22T12:28:34.892Z,30.58
2018-03-22T12:29:37.468Z,33.92
2018-03-22T12:30:39.950Z,27.13
2018-03-22T12:31:42.514Z,27.23
2018-03-22T12:32:45.039Z,31.17
2018-03-22T12:33:48.329Z,27.15
2018-03-22T12:34:51.621Z,26.92
2018-03-22T12:35:54.150Z,28.75
2018-03-22T12:36:56.713Z,31.75
2018-03-22T12:37:59.240Z,27.35
2018-03-22T12:39:01.768Z,29.45
2018-03-22T12:40:05.065Z,31.45
2018-03-22T12:41:07.585Z,29.08
2018-03-22T12:42:10.154Z,26.77
2018-03-22T12:43:12.730Z,25.52
2018-03-22T12:44:15.255Z,23.50
2018-03-22T12:45:17.771Z,25.48
2018-03-22T12:46:21.143Z,29.30
2018-03-22T12:47:23.661Z,24.45
2018-03-22T12:48:26.222Z,25.77
2018-03-22T12:49:28.751Z,27.30
2018-03-22T12:50:31.281Z,23.77
2018-03-22T12:51:33.810Z,28.62
2018-03-22T12:52:36.334Z,29.05
2018-03-22T12:53:38.890Z,25.60
2018-03-22T12:54:41.417Z,29.42
2018-03-22T12:55:43.958Z,23.83
2018-03-22T12:56:47.244Z,26.75
2018-03-22T12:57:50.578Z,27.13
2018-03-22T12:58:53.132Z,27.90
2018-03-22T12:59:55.645Z,28.80
2018-03-22T13:00:58.186Z,24.12
2018-03-22T13:03:09.589Z,26.83
2018-03-22T13:04:12.104Z,28.12
2018-03-22T13:05:14.633Z,24.37
2018-03-22T13:06:17.933Z,20.58
2018-03-22T13:07:21.218Z,24.60
2018-03-22T13:08:24.549Z,25.08
2018-03-22T13:09:27.080Z,22.98
2018-03-22T13:10:29.598Z,24.65
2018-03-22T13:11:32.118Z,24.17
2018-03-22T13:12:34.650Z,24.75
2018-03-22T13:13:37.973Z,26.55
2018-03-22T13:14:40.529Z,25.08
2018-03-22T13:15:43.045Z,24.48
2018-03-22T13:16:45.570Z,25.12
2018-03-22T13:17:48.133Z,26.80
2018-03-22T13:18:50.661Z,28.02
2018-03-22T13:19:53.185Z,22.80
2018-03-22T13:20:55.704Z,27.87
2018-03-22T13:21:59.035Z,23.80
2018-03-22T13:23:01.557Z,28.60
2018-03-22T13:24:04.841Z,23.92
2018-03-22T13:25:08.122Z,27.50
2018-03-22T13:26:11.426Z,28.52
2018-03-22T13:27:13.991Z,32.00
2018-03-22T13:28:16.567Z,22.10
2018-03-22T13:29:19.089Z,26.87
2018-03-22T13:30:21.614Z,27.87